Stringtown, Ohio
Current Conditions -  °F | °C
As of 6:53 AM on Friday 21 Nov 2014 (Local Time) from KLUK Reporting Station
Clear Clear  
Wind Chill: 18°   Ceiling: Unl
Heat Index: 18°   Visibility: 10mi
Dew Point:   Wind: 0mph
Humidity: 65%   Direction: NA
Pressure: 30.47"   Gusts: NA
Location:  38.8228°N, 84.096°W
Report Text: KLUK 211153Z 00000KT 10SM CLR M08/M13 A3047 RMK AO2 SLP326 T10781133 11022 21078 51023
Loading
Personal Weather Stations






























Interactive Weather Map New forecast layout! Learn more

10-Day Weather Forecast

Advertisements
Track Severe Weather on mobile